Time;durP1;ratioP1;P1;durP2;ratioP2;P2;SDS_P1;SDS_P2;PMS_P1;PMS_P2;Temp;Humidity;BMP_temperature;BMP_pressure;BME280_temperature;BME280_humidity;BME280_pressure;Samples;Min_cycle;Max_cycle;Signal;HPM_P1;HPM_P2
2022/04/30 00:02:06;;;;;;;3.53;2.03;;;9.40;96.80;;;;;;5088564;28;20449;-91
2022/04/30 00:04:34;;;;;;;2.10;1.90;;;9.40;96.90;;;;;;5101690;27;20457;-90
2022/04/30 00:07:01;;;;;;;4.33;2.63;;;9.40;97.20;;;;;;5088363;28;20471;-90
2022/04/30 00:09:28;;;;;;;3.90;1.97;;;9.40;96.90;;;;;;5091797;28;20908;-91
2022/04/30 00:11:57;;;;;;;2.27;1.50;;;9.40;96.90;;;;;;5087960;28;20466;-90
2022/04/30 00:14:24;;;;;;;2.97;2.77;;;9.30;97.20;;;;;;5090681;28;20539;-90
2022/04/30 00:16:51;;;;;;;5.20;2.97;;;9.20;97.70;;;;;;5088593;28;20967;-90
2022/04/30 00:19:19;;;;;;;2.73;1.93;;;9.30;97.20;;;;;;5089428;28;20491;-90
2022/04/30 00:21:46;;;;;;;3.10;2.47;;;9.20;97.40;;;;;;5088126;28;20552;-90
2022/04/30 00:24:13;;;;;;;4.03;1.70;;;9.10;97.70;;;;;;5088488;28;20496;-90
2022/04/30 00:26:40;;;;;;;3.43;1.70;;;9.20;97.30;;;;;;5088632;28;20515;-91
2022/04/30 00:29:09;;;;;;;2.40;2.13;;;9.10;97.40;;;;;;5087579;28;20518;-91
2022/04/30 00:31:36;;;;;;;2.90;2.43;;;9.20;97.40;;;;;;5087421;28;20891;-90
2022/04/30 00:34:04;;;;;;;2.40;1.83;;;9.10;97.40;;;;;;5085208;28;20490;-90
2022/04/30 00:36:31;;;;;;;4.17;2.47;;;9.10;97.40;;;;;;5087764;28;20458;-90
2022/04/30 00:38:58;;;;;;;3.60;2.60;;;9.10;97.50;;;;;;5087595;28;20462;-90
2022/04/30 00:41:25;;;;;;;1.93;1.67;;;9.10;97.50;;;;;;5087336;28;20476;-90
2022/04/30 00:43:54;;;;;;;1.33;1.23;;;9.10;97.10;;;;;;5088294;28;20447;-90
2022/04/30 00:46:24;;;;;;;2.33;2.10;;;9.10;96.90;;;;;;5097910;28;20546;-90
2022/04/30 00:48:54;;;;;;;3.03;2.50;;;9.10;97.00;;;;;;5104893;28;20458;-90
2022/04/30 00:51:22;;;;;;;4.53;2.10;;;9.10;96.80;;;;;;5088325;28;20454;-90
2022/04/30 00:53:50;;;;;;;4.40;3.23;;;9.10;96.70;;;;;;5089903;28;21203;-90
2022/04/30 00:56:23;;;;;;;4.73;2.13;;;9.10;96.60;;;;;;5085118;28;20443;-90
2022/04/30 00:58:53;;;;;;;2.40;1.93;;;9.10;96.70;;;;;;5093033;28;20453;-90
2022/04/30 01:01:22;;;;;;;2.47;2.27;;;9.10;96.70;;;;;;5103113;28;20455;-89
2022/04/30 01:03:49;;;;;;;2.60;2.40;;;9.10;96.60;;;;;;5085970;28;20504;-90
2022/04/30 01:06:18;;;;;;;2.70;2.50;;;9.00;96.90;;;;;;5088326;28;20844;-91
2022/04/30 01:08:45;;;;;;;3.13;1.80;;;8.90;96.80;;;;;;5091741;28;20479;-90
2022/04/30 01:11:12;;;;;;;4.03;1.67;;;8.90;96.80;;;;;;5084688;28;21002;-93
2022/04/30 01:13:39;;;;;;;2.60;1.80;;;8.90;97.00;;;;;;5101243;28;21042;-90
2022/04/30 01:16:08;;;;;;;2.50;1.83;;;8.80;97.20;;;;;;5087177;28;20781;-90
2022/04/30 01:18:37;;;;;;;2.33;2.07;;;8.80;97.30;;;;;;5084633;28;20528;-93
2022/04/30 01:21:10;;;;;;;2.87;1.57;;;8.80;97.50;;;;;;5087006;28;20543;-90
2022/04/30 01:23:41;;;;;;;3.00;2.10;;;8.70;97.40;;;;;;5086412;28;20447;-90
2022/04/30 01:26:10;;;;;;;2.17;1.60;;;8.70;97.70;;;;;;5087288;28;20463;-90
2022/04/30 01:28:37;;;;;;;2.33;1.73;;;8.70;97.60;;;;;;5085515;28;20462;-90
2022/04/30 01:37:22;;;;;;;5.03;2.60;;;8.60;97.70;;;;;;5085411;28;20531;-90
2022/04/30 01:39:21;;;;;;;2.70;2.33;;;8.50;97.90;;;;;;5092641;28;20889;-90
2022/04/30 01:41:48;;;;;;;3.50;2.80;;;8.40;98.20;;;;;;5085664;28;20457;-90
2022/04/30 01:44:19;;;;;;;2.47;1.60;;;8.40;98.30;;;;;;5087410;28;21048;-90
2022/04/30 01:46:46;;;;;;;2.53;2.10;;;8.40;98.50;;;;;;5086730;28;20964;-90
2022/04/30 01:49:16;;;;;;;3.07;1.80;;;8.30;98.60;;;;;;5088403;28;20473;-90
2022/04/30 01:51:49;;;;;;;2.43;2.17;;;8.20;99.00;;;;;;5085316;28;20539;-90
2022/04/30 01:54:16;;;;;;;3.33;2.23;;;8.10;99.20;;;;;;5088782;28;20545;-90
2022/04/30 01:56:45;;;;;;;1.20;1.00;;;8.00;99.40;;;;;;5090944;28;20458;-90
2022/04/30 01:59:12;;;;;;;2.23;1.87;;;8.00;99.70;;;;;;5086126;28;20512;-90
2022/04/30 02:01:42;;;;;;;3.67;1.73;;;8.00;99.80;;;;;;5085653;28;20485;-90
2022/04/30 02:04:09;;;;;;;1.87;1.77;;;8.00;99.40;;;;;;5086990;28;20493;-90
2022/04/30 02:06:37;;;;;;;1.20;1.10;;;8.10;99.30;;;;;;5086949;28;20978;-91
2022/04/30 02:09:04;;;;;;;2.17;1.97;;;8.00;99.30;;;;;;5092012;28;20522;-90
2022/04/30 02:11:31;;;;;;;2.73;1.50;;;8.00;99.30;;;;;;5086813;28;20443;-90
2022/04/30 02:14:03;;;;;;;2.37;2.17;;;8.00;99.50;;;;;;5084586;28;20489;-91
2022/04/30 02:16:32;;;;;;;3.00;2.03;;;8.00;99.60;;;;;;5086712;28;20447;-91
2022/04/30 02:19:02;;;;;;;3.07;1.63;;;7.90;99.80;;;;;;5086919;28;20461;-91
2022/04/30 02:21:32;;;;;;;1.53;1.27;;;7.80;99.70;;;;;;5087504;28;20519;-91
2022/04/30 02:23:59;;;;;;;1.47;1.37;;;8.00;99.40;;;;;;5084551;28;20892;-91
2022/04/30 02:26:27;;;;;;;1.50;1.40;;;8.00;99.40;;;;;;5085788;28;20516;-91
2022/04/30 02:28:56;;;;;;;2.60;2.27;;;7.90;99.60;;;;;;5098318;28;20431;-91
2022/04/30 02:31:25;;;;;;;2.13;1.80;;;7.90;99.70;;;;;;5109834;28;20442;-91
2022/04/30 02:33:54;;;;;;;1.97;1.67;;;7.80;99.80;;;;;;5111869;28;20475;-91
2022/04/30 02:36:25;;;;;;;1.97;1.73;;;7.80;99.90;;;;;;5105245;28;20474;-91
2022/04/30 02:38:53;;;;;;;3.23;2.43;;;7.80;99.90;;;;;;5095331;28;20477;-92
2022/04/30 02:41:21;;;;;;;2.37;1.90;;;7.70;99.90;;;;;;5092064;28;20466;-91
2022/04/30 02:43:50;;;;;;;2.77;1.30;;;7.60;99.90;;;;;;5086048;28;20469;-91
2022/04/30 02:46:17;;;;;;;2.27;1.40;;;7.60;99.90;;;;;;5083209;28;20939;-92
2022/04/30 02:48:45;;;;;;;2.70;1.80;;;7.60;99.90;;;;;;5087963;28;20466;-91
2022/04/30 02:51:12;;;;;;;2.63;2.10;;;7.60;99.90;;;;;;5091459;28;20453;-91
2022/04/30 02:53:40;;;;;;;3.33;2.73;;;7.60;99.90;;;;;;5096144;28;20547;-91
2022/04/30 02:56:07;;;;;;;2.50;2.27;;;7.50;99.90;;;;;;5090247;27;21103;-91
2022/04/30 03:01:19;;;;;;;2.60;1.57;;;7.50;99.90;;;;;;5090637;28;20940;-91
2022/04/30 03:03:48;;;;;;;2.43;1.33;;;7.50;99.90;;;;;;5089447;28;20446;-91
2022/04/30 03:06:15;;;;;;;3.33;2.57;;;7.50;99.90;;;;;;5087511;28;20454;-90
2022/04/30 03:08:46;;;;;;;1.70;1.60;;;7.50;99.90;;;;;;5091647;28;20465;-91
2022/04/30 03:11:13;;;;;;;2.70;2.13;;;7.50;99.90;;;;;;5087102;28;20463;-92
2022/04/30 03:13:40;;;;;;;3.23;2.67;;;7.40;99.90;;;;;;5086933;28;20481;-92
2022/04/30 03:21:44;;;;;;;2.70;2.03;;;7.40;99.90;;;;;;5102570;28;20876;-92
2022/04/30 03:24:12;;;;;;;2.00;1.90;;;7.40;99.90;;;;;;5086183;28;20932;-91
2022/04/30 03:26:39;;;;;;;8.10;2.53;;;7.30;99.90;;;;;;5088276;28;20964;-91
2022/04/30 03:29:06;;;;;;;3.50;2.40;;;7.30;99.90;;;;;;5084413;28;20547;-91
2022/04/30 03:31:33;;;;;;;3.83;2.47;;;7.30;99.90;;;;;;5091073;28;20460;-90
2022/04/30 03:34:03;;;;;;;3.47;2.50;;;7.30;99.90;;;;;;5085894;28;21269;-91
2022/04/30 03:36:30;;;;;;;1.60;1.50;;;7.30;99.90;;;;;;5096230;28;20552;-92
2022/04/30 03:38:57;;;;;;;3.50;3.17;;;7.20;99.90;;;;;;5111650;28;20701;-91
2022/04/30 03:41:24;;;;;;;3.27;2.27;;;7.30;99.90;;;;;;5112731;28;20515;-92
2022/04/30 03:43:51;;;;;;;1.70;1.60;;;7.20;99.90;;;;;;5120075;28;20458;-91
2022/04/30 03:46:18;;;;;;;2.60;1.73;;;7.30;99.90;;;;;;5103134;28;20440;-91
2022/04/30 03:48:47;;;;;;;2.37;1.83;;;7.30;99.90;;;;;;5096122;28;20477;-92
2022/04/30 03:51:16;;;;;;;2.90;2.30;;;7.20;99.90;;;;;;5093168;28;20469;-91
2022/04/30 03:53:43;;;;;;;2.40;2.20;;;7.10;99.90;;;;;;5093681;28;21270;-91
2022/04/30 03:56:10;;;;;;;5.47;2.63;;;7.00;99.90;;;;;;5092171;28;20458;-91
2022/04/30 03:58:37;;;;;;;4.17;2.53;;;7.00;99.90;;;;;;5092801;28;20533;-91
2022/04/30 04:01:04;;;;;;;4.50;2.97;;;7.00;99.90;;;;;;5087797;28;20478;-91
2022/04/30 04:03:31;;;;;;;4.37;2.43;;;7.00;99.90;;;;;;5089432;28;20831;-91
2022/04/30 04:05:59;;;;;;;11.70;3.33;;;7.00;99.90;;;;;;5088058;28;21031;-92
2022/04/30 04:08:28;;;;;;;4.90;3.47;;;7.00;99.90;;;;;;5089915;28;20998;-91
2022/04/30 04:10:56;;;;;;;3.80;3.20;;;7.00;99.90;;;;;;5096367;28;20462;-92
2022/04/30 04:18:54;;;;;;;2.93;1.80;;;7.00;99.90;;;;;;5099525;28;20454;-90
2022/04/30 04:21:21;;;;;;;3.23;1.83;;;7.00;99.90;;;;;;5086901;28;20586;-91
2022/04/30 04:26:34;;;;;;;2.70;1.93;;;7.10;99.90;;;;;;5107285;28;20445;-92
2022/04/30 04:29:02;;;;;;;3.10;1.70;;;7.10;99.90;;;;;;5091337;28;20858;-91
2022/04/30 04:31:29;;;;;;;2.60;2.40;;;7.20;99.90;;;;;;5086599;28;20442;-91
2022/04/30 04:33:56;;;;;;;4.80;3.37;;;7.20;99.90;;;;;;5086097;28;20483;-91
2022/04/30 04:36:23;;;;;;;2.63;2.43;;;7.20;99.90;;;;;;5085049;28;20538;-91
2022/04/30 04:38:51;;;;;;;3.50;2.87;;;7.30;99.90;;;;;;5087401;28;20522;-91
2022/04/30 04:41:18;;;;;;;3.83;2.13;;;7.20;99.90;;;;;;5084901;28;20520;-91
2022/04/30 04:43:45;;;;;;;1.97;1.80;;;7.20;99.90;;;;;;5091041;28;20466;-91
2022/04/30 04:46:13;;;;;;;2.47;1.83;;;7.30;99.90;;;;;;5088196;28;20442;-90
2022/04/30 04:48:40;;;;;;;1.97;1.57;;;7.40;99.90;;;;;;5088178;28;20516;-91
2022/04/30 04:51:07;;;;;;;2.83;1.67;;;7.50;99.90;;;;;;5085116;28;20470;-90
2022/04/30 04:53:36;;;;;;;2.13;1.20;;;7.50;99.90;;;;;;5099107;28;20976;-91
2022/04/30 04:56:06;;;;;;;2.20;1.13;;;7.60;99.90;;;;;;5096641;28;20457;-91
2022/04/30 04:58:33;;;;;;;2.63;2.43;;;7.60;99.90;;;;;;5099868;28;20853;-91
2022/04/30 05:01:00;;;;;;;3.63;1.90;;;7.60;99.90;;;;;;5103572;28;20512;-91
2022/04/30 05:03:27;;;;;;;2.20;2.00;;;7.70;99.90;;;;;;5084904;28;20967;-91
2022/04/30 05:05:54;;;;;;;4.70;1.70;;;7.60;99.90;;;;;;5088721;28;20913;-91
2022/04/30 05:08:21;;;;;;;2.57;2.37;;;7.70;99.90;;;;;;5094449;28;20570;-92
2022/04/30 05:10:48;;;;;;;3.20;2.87;;;7.70;99.90;;;;;;5088248;28;20455;-91
2022/04/30 05:13:16;;;;;;;3.43;3.20;;;7.80;99.90;;;;;;5088321;28;20453;-91
2022/04/30 05:15:43;;;;;;;3.73;3.40;;;7.90;99.90;;;;;;5085661;28;20466;-91
2022/04/30 05:18:10;;;;;;;3.67;3.33;;;7.90;99.90;;;;;;5091065;28;20553;-91
2022/04/30 05:20:38;;;;;;;2.80;2.60;;;8.00;99.90;;;;;;5090962;28;20479;-91
2022/04/30 05:23:05;;;;;;;2.40;2.07;;;8.00;99.90;;;;;;5085049;28;20485;-91
2022/04/30 05:25:32;;;;;;;2.60;2.40;;;8.20;99.90;;;;;;5092136;28;20459;-92
2022/04/30 05:27:59;;;;;;;3.57;2.00;;;8.10;99.90;;;;;;5091878;28;20466;-90
2022/04/30 05:30:28;;;;;;;2.57;2.37;;;8.20;99.90;;;;;;5092063;28;20462;-90
2022/04/30 05:32:55;;;;;;;1.70;1.40;;;8.30;99.90;;;;;;5095237;28;20899;-89
2022/04/30 05:35:22;;;;;;;3.07;2.43;;;8.40;99.90;;;;;;5092176;28;20554;-89
2022/04/30 05:37:49;;;;;;;2.63;1.90;;;8.60;99.90;;;;;;5095465;28;20947;-88
2022/04/30 05:40:15;;;;;;;1.87;1.67;;;8.70;99.90;;;;;;5088887;28;20455;-89
2022/04/30 05:42:42;;;;;;;2.47;1.37;;;8.70;99.90;;;;;;5096270;28;20466;-89
2022/04/30 05:45:10;;;;;;;2.80;1.90;;;8.70;99.90;;;;;;5100130;28;20465;-89
2022/04/30 05:47:38;;;;;;;2.90;1.73;;;8.70;99.90;;;;;;5100126;28;20493;-89
2022/04/30 05:50:07;;;;;;;1.73;1.53;;;8.80;99.90;;;;;;5101988;28;20445;-89
2022/04/30 05:52:34;;;;;;;5.13;2.23;;;8.80;99.90;;;;;;5086647;28;20957;-89
2022/04/30 05:55:02;;;;;;;3.60;2.20;;;8.90;99.80;;;;;;5088253;28;21050;-89
2022/04/30 05:57:29;;;;;;;3.90;2.50;;;9.20;99.90;;;;;;5091567;28;20498;-89
2022/04/30 05:59:56;;;;;;;3.23;1.70;;;9.40;99.10;;;;;;5096585;28;20460;-90
2022/04/30 06:02:24;;;;;;;2.00;1.67;;;9.50;98.80;;;;;;5096280;28;21013;-89
2022/04/30 06:04:52;;;;;;;2.53;2.33;;;9.70;98.30;;;;;;5093104;28;20520;-92
2022/04/30 06:07:19;;;;;;;2.17;2.00;;;9.80;97.60;;;;;;5092660;28;21247;-89
2022/04/30 06:09:46;;;;;;;2.83;1.27;;;9.90;97.60;;;;;;5099565;28;21065;-89
2022/04/30 06:12:13;;;;;;;3.20;3.00;;;10.10;96.90;;;;;;5095818;28;21017;-88
2022/04/30 06:14:40;;;;;;;2.40;1.80;;;10.40;96.50;;;;;;5089311;28;20494;-88
2022/04/30 06:17:07;;;;;;;2.23;2.10;;;10.40;95.40;;;;;;5085213;28;20835;-89
2022/04/30 06:19:35;;;;;;;4.07;2.83;;;10.60;95.10;;;;;;5087912;28;20487;-88
2022/04/30 06:22:04;;;;;;;3.27;2.47;;;10.80;95.40;;;;;;5092755;28;20454;-89
2022/04/30 06:24:31;;;;;;;3.80;2.63;;;10.90;95.00;;;;;;5088801;28;20469;-91
2022/04/30 06:26:57;;;;;;;2.70;1.87;;;11.10;93.80;;;;;;5088344;28;20475;-89
2022/04/30 06:29:24;;;;;;;3.03;2.13;;;11.30;94.20;;;;;;5099650;28;20507;-89
2022/04/30 06:31:52;;;;;;;3.53;1.93;;;11.50;93.70;;;;;;5100892;28;20447;-90
2022/04/30 06:34:19;;;;;;;3.70;1.90;;;11.60;92.70;;;;;;5122236;28;20473;-89
2022/04/30 06:36:46;;;;;;;2.40;1.57;;;11.70;93.40;;;;;;5113272;28;20476;-89
2022/04/30 06:39:15;;;;;;;3.53;2.37;;;11.90;92.90;;;;;;5106209;28;20796;-90
2022/04/30 06:41:42;;;;;;;2.80;1.93;;;12.10;92.80;;;;;;5103646;28;20600;-90
2022/04/30 06:44:09;;;;;;;2.97;2.63;;;12.20;92.50;;;;;;5091315;28;20906;-90
2022/04/30 06:46:36;;;;;;;2.80;2.33;;;12.20;91.90;;;;;;5092399;28;20988;-89
2022/04/30 06:49:04;;;;;;;3.10;2.50;;;12.30;91.40;;;;;;5089407;28;21010;-90
2022/04/30 06:51:31;;;;;;;1.90;1.70;;;12.30;91.60;;;;;;5090517;28;20546;-89
2022/04/30 06:59:31;;;;;;;5.60;2.07;;;12.40;87.40;;;;;;5089858;28;21280;-90
2022/04/30 07:02:01;;;;;;;4.63;1.20;;;12.40;90.00;;;;;;5095802;28;20456;-90
2022/04/30 07:04:29;;;;;;;2.40;2.20;;;12.40;88.30;;;;;;5091230;28;20547;-89
2022/04/30 07:06:57;;;;;;;2.37;1.50;;;12.60;87.80;;;;;;5094100;28;20492;-89
2022/04/30 07:09:23;;;;;;;1.90;1.73;;;12.90;89.80;;;;;;5098021;28;20512;-90
2022/04/30 07:11:53;;;;;;;2.50;1.67;;;13.10;90.10;;;;;;5115892;28;20441;-90
2022/04/30 07:14:20;;;;;;;2.00;1.67;;;13.10;87.40;;;;;;5111183;28;20482;-90
2022/04/30 07:16:46;;;;;;;3.20;1.93;;;13.10;88.50;;;;;;5101378;28;20763;-90
2022/04/30 07:19:13;;;;;;;1.80;1.33;;;13.20;88.70;;;;;;5096118;28;20468;-90
2022/04/30 07:21:41;;;;;;;1.27;1.17;;;13.20;86.60;;;;;;5094261;28;21156;-89
2022/04/30 07:24:08;;;;;;;2.13;1.93;;;13.20;88.20;;;;;;5098062;28;20883;-90
2022/04/30 07:26:35;;;;;;;1.43;1.17;;;13.30;88.80;;;;;;5088471;28;20506;-90
2022/04/30 07:29:04;;;;;;;2.30;2.00;;;13.20;86.00;;;;;;5089552;28;20461;-90
2022/04/30 07:31:31;;;;;;;1.67;1.40;;;13.20;84.70;;;;;;5088332;28;20497;-91
2022/04/30 07:33:58;;;;;;;2.47;1.63;;;13.40;87.00;;;;;;5092180;28;20483;-90
2022/04/30 07:36:26;;;;;;;4.20;2.93;;;13.60;88.20;;;;;;5088335;28;20535;-90
2022/04/30 07:38:54;;;;;;;3.27;2.30;;;13.60;85.60;;;;;;5096822;28;20521;-90
2022/04/30 07:41:21;;;;;;;1.67;1.57;;;13.80;84.00;;;;;;5090070;28;20790;-90
2022/04/30 07:43:48;;;;;;;4.03;1.90;;;13.80;84.60;;;;;;5103260;28;20465;-90
2022/04/30 07:46:17;;;;;;;1.50;1.40;;;13.80;83.70;;;;;;5084431;28;20585;-92
2022/04/30 07:48:44;;;;;;;2.30;1.57;;;14.00;86.00;;;;;;5087612;28;20461;-91
2022/04/30 07:51:16;;;;;;;2.53;1.97;;;14.00;85.70;;;;;;5083489;28;20464;-93
2022/04/30 07:53:43;;;;;;;2.73;1.83;;;14.00;84.80;;;;;;5087087;28;20990;-91
2022/04/30 07:56:11;;;;;;;3.30;1.80;;;14.20;85.80;;;;;;5085001;28;20496;-92
2022/04/30 07:58:39;;;;;;;2.33;1.97;;;14.40;85.10;;;;;;5099285;28;20473;-92
2022/04/30 08:01:06;;;;;;;1.63;1.53;;;14.80;87.00;;;;;;5093281;28;20463;-92
2022/04/30 08:03:34;;;;;;;7.20;2.07;;;14.90;84.90;;;;;;5096074;28;20465;-91
2022/04/30 08:06:02;;;;;;;2.70;1.80;;;14.90;83.80;;;;;;5108117;28;20448;-92
2022/04/30 08:08:29;;;;;;;3.30;1.87;;;14.60;82.70;;;;;;5090456;27;20730;-91
2022/04/30 08:10:56;;;;;;;4.90;2.47;;;14.60;82.80;;;;;;5095346;28;21066;-92
2022/04/30 08:13:23;;;;;;;3.30;1.67;;;14.80;83.40;;;;;;5099125;28;20530;-91
2022/04/30 08:15:50;;;;;;;4.50;2.90;;;14.70;81.00;;;;;;5094297;28;20490;-91
2022/04/30 08:18:17;;;;;;;2.80;1.57;;;15.00;84.10;;;;;;5090741;28;20851;-92
2022/04/30 08:20:46;;;;;;;2.60;2.40;;;15.20;85.20;;;;;;5091187;28;21009;-91
2022/04/30 08:23:14;;;;;;;2.10;1.90;;;15.40;80.90;;;;;;5086761;28;20521;-92
2022/04/30 08:25:40;;;;;;;2.37;1.80;;;15.30;79.40;;;;;;5088851;28;20523;-92
2022/04/30 08:28:08;;;;;;;2.90;2.23;;;15.10;81.10;;;;;;5087633;28;20568;-92
2022/04/30 08:30:35;;;;;;;2.90;1.60;;;15.20;82.60;;;;;;5086195;28;21120;-92
2022/04/30 08:33:02;;;;;;;4.20;1.87;;;15.30;82.30;;;;;;5089296;27;20784;-91
2022/04/30 08:35:29;;;;;;;2.33;1.73;;;15.10;78.80;;;;;;5093112;28;20486;-91
2022/04/30 08:37:57;;;;;;;2.23;2.03;;;15.20;81.00;;;;;;5088026;28;20472;-93
2022/04/30 08:40:24;;;;;;;8.20;2.60;;;15.30;80.70;;;;;;5086838;28;20473;-92
2022/04/30 08:42:51;;;;;;;2.53;1.80;;;15.10;78.20;;;;;;5089010;28;20461;-93
2022/04/30 08:45:22;;;;;;;2.97;2.23;;;15.40;77.80;;;;;;5085600;28;20520;-92
2022/04/30 08:47:51;;;;;;;5.03;2.33;;;15.70;80.10;;;;;;5087637;28;20459;-92
2022/04/30 08:50:18;;;;;;;2.47;1.43;;;15.80;78.60;;;;;;5086470;28;20471;-92
2022/04/30 08:52:45;;;;;;;3.53;2.60;;;15.90;78.60;;;;;;5088889;28;20465;-92
2022/04/30 08:55:13;;;;;;;3.23;1.93;;;15.90;80.10;;;;;;5090884;28;20538;-92
2022/04/30 08:57:40;;;;;;;1.60;1.50;;;16.30;81.70;;;;;;5089785;28;20456;-89
2022/04/30 09:00:08;;;;;;;5.37;2.10;;;16.40;78.60;;;;;;5091528;28;20458;-90
2022/04/30 09:02:36;;;;;;;2.80;1.63;;;16.50;77.80;;;;;;5091417;28;20492;-89
2022/04/30 09:05:03;;;;;;;3.30;2.73;;;16.70;77.10;;;;;;5086559;28;20470;-90
2022/04/30 09:07:33;;;;;;;1.90;1.50;;;16.60;73.60;;;;;;5084778;28;20472;-91
2022/04/30 09:10:05;;;;;;;1.00;1.00;;;16.80;76.30;;;;;;5085443;28;20469;-91
2022/04/30 09:12:34;;;;;;;2.20;2.00;;;17.00;78.20;;;;;;5085794;27;20470;-90
2022/04/30 09:15:03;;;;;;;3.03;2.73;;;17.50;77.90;;;;;;5087092;28;20481;-89
2022/04/30 09:17:33;;;;;;;1.77;1.67;;;17.70;76.80;;;;;;5086723;28;20778;-89
2022/04/30 09:20:01;;;;;;;5.27;3.03;;;17.50;73.90;;;;;;5090680;28;21220;-90
2022/04/30 09:22:29;;;;;;;2.30;2.00;;;17.40;73.20;;;;;;5086131;28;20966;-90
2022/04/30 09:24:57;;;;;;;2.30;1.73;;;17.30;75.00;;;;;;5090233;28;20456;-89
2022/04/30 09:27:24;;;;;;;2.50;1.53;;;17.60;73.70;;;;;;5085742;28;20462;-90
2022/04/30 09:29:53;;;;;;;3.63;2.03;;;17.00;71.90;;;;;;5083169;28;20475;-90
2022/04/30 09:32:22;;;;;;;2.73;1.77;;;16.60;74.00;;;;;;5079055;28;20858;-90
2022/04/30 09:37:46;;;;;;;1.53;1.30;;;16.80;76.80;;;;;;5082484;28;20465;-91
2022/04/30 09:40:24;;;;;;;4.67;2.07;;;16.90;73.00;;;;;;5080006;28;20470;-91
2022/04/30 09:42:52;;;;;;;1.83;1.73;;;16.80;72.90;;;;;;5087056;28;20462;-91
2022/04/30 09:45:31;;;;;;;2.13;1.90;;;16.60;74.20;;;;;;5081112;28;20516;-90
2022/04/30 09:47:59;;;;;;;1.80;1.57;;;17.20;77.60;;;;;;5105219;28;20987;-90
2022/04/30 09:56:07;;;;;;;2.97;1.87;;;17.90;75.10;;;;;;5103983;28;20488;-91
2022/04/30 09:58:37;;;;;;;2.33;1.50;;;18.10;71.90;;;;;;5087740;28;20473;-91
2022/04/30 10:01:07;;;;;;;2.47;1.00;;;18.00;69.00;;;;;;5094600;28;20460;-91
2022/04/30 10:03:35;;;;;;;1.37;1.00;;;18.00;72.40;;;;;;5098798;28;20465;-90
2022/04/30 10:06:04;;;;;;;1.83;1.57;;;18.00;71.80;;;;;;5095823;28;20466;-91
2022/04/30 10:08:35;;;;;;;3.00;2.33;;;17.90;70.20;;;;;;5093998;28;20979;-91
2022/04/30 10:11:12;;;;;;;1.33;1.10;;;17.90;69.90;;;;;;5090207;28;20516;-91
2022/04/30 10:13:51;;;;;;;1.17;1.07;;;17.90;69.80;;;;;;5087385;28;20461;-92
2022/04/30 10:16:25;;;;;;;2.20;1.23;;;18.10;69.60;;;;;;5090439;28;20490;-91
2022/04/30 10:19:18;;;;;;;2.57;1.20;;;18.10;67.80;;;;;;5094706;28;20459;-92
2022/04/30 10:21:45;;;;;;;2.30;1.73;;;18.30;70.50;;;;;;5050571;28;21099;-92
2022/04/30 10:24:14;;;;;;;3.10;1.73;;;18.60;73.60;;;;;;5055057;28;20487;-92
2022/04/30 10:26:59;;;;;;;1.07;0.97;;;18.70;70.30;;;;;;5051006;28;20464;-92
2022/04/30 10:29:26;;;;;;;2.90;1.67;;;18.60;71.10;;;;;;5076669;28;20454;-91
2022/04/30 10:31:55;;;;;;;1.87;1.70;;;18.60;72.80;;;;;;5075212;28;20505;-92
2022/04/30 10:34:29;;;;;;;1.00;0.70;;;19.00;70.10;;;;;;5068252;28;20465;-90
2022/04/30 10:36:58;;;;;;;1.10;1.00;;;18.60;62.10;;;;;;5058469;28;21063;-91
2022/04/30 10:39:25;;;;;;;1.73;1.00;;;18.40;62.40;;;;;;5050956;28;20557;-92
2022/04/30 10:41:53;;;;;;;1.27;0.80;;;18.80;66.60;;;;;;5052216;28;20487;-91
2022/04/30 10:44:30;;;;;;;2.80;1.50;;;18.90;62.90;;;;;;5048341;28;20636;-91
2022/04/30 10:47:08;;;;;;;1.30;1.20;;;19.10;65.90;;;;;;5049330;28;20494;-91
2022/04/30 10:49:36;;;;;;;1.50;1.33;;;19.00;64.10;;;;;;5049508;28;20590;-90
2022/04/30 10:52:03;;;;;;;1.03;1.03;;;19.10;68.10;;;;;;5049104;28;21002;-91
2022/04/30 10:54:31;;;;;;;14.73;2.57;;;19.20;65.80;;;;;;5045898;28;20481;-93
2022/04/30 10:57:00;;;;;;;1.73;1.40;;;19.50;68.80;;;;;;5048708;28;20498;-90
2022/04/30 10:59:27;;;;;;;1.50;1.40;;;19.40;65.80;;;;;;5050742;28;20462;-91
2022/04/30 11:01:54;;;;;;;1.73;1.13;;;19.00;65.70;;;;;;5048662;28;20529;-91
2022/04/30 11:04:26;;;;;;;1.27;1.17;;;18.70;64.30;;;;;;5046939;28;20470;-91
2022/04/30 11:06:56;;;;;;;2.40;1.20;;;19.00;69.60;;;;;;5051154;28;20578;-91
2022/04/30 11:09:23;;;;;;;1.27;1.07;;;19.10;67.50;;;;;;5048264;28;20489;-90
2022/04/30 11:11:51;;;;;;;1.83;1.47;;;19.50;66.00;;;;;;5050261;28;20924;-89
2022/04/30 11:14:20;;;;;;;2.80;1.37;;;19.90;66.00;;;;;;5047456;28;20465;-90
2022/04/30 11:16:49;;;;;;;1.37;1.00;;;20.30;68.50;;;;;;5048697;28;20489;-90
2022/04/30 11:19:18;;;;;;;1.43;1.33;;;20.30;65.80;;;;;;5054762;28;20531;-90
2022/04/30 11:21:50;;;;;;;4.80;2.83;;;20.10;63.50;;;;;;5090480;28;20468;-91
2022/04/30 11:24:25;;;;;;;1.93;1.73;;;20.30;67.90;;;;;;5091052;28;20463;-90
2022/04/30 11:26:55;;;;;;;2.00;1.70;;;19.80;64.90;;;;;;5100893;28;20456;-90
2022/04/30 11:29:23;;;;;;;1.27;1.00;;;19.40;65.80;;;;;;5088689;28;20467;-91
2022/04/30 11:31:52;;;;;;;2.30;2.10;;;19.30;65.80;;;;;;5087780;28;20460;-91
2022/04/30 11:34:20;;;;;;;2.10;1.30;;;19.10;66.60;;;;;;5091881;27;20526;-91
2022/04/30 11:36:50;;;;;;;1.13;1.03;;;19.30;65.40;;;;;;5095640;27;20495;-90
2022/04/30 11:39:20;;;;;;;1.67;1.47;;;19.50;64.10;;;;;;5090610;28;20876;-91
2022/04/30 11:41:49;;;;;;;1.90;1.50;;;19.30;69.00;;;;;;5092567;28;20919;-91
2022/04/30 11:44:18;;;;;;;2.60;2.40;;;19.60;68.90;;;;;;5093025;28;20482;-91
2022/04/30 11:46:46;;;;;;;1.67;1.53;;;19.90;64.40;;;;;;5094085;27;20454;-91
2022/04/30 11:49:14;;;;;;;3.60;1.07;;;20.30;65.90;;;;;;5088269;28;20513;-90
2022/04/30 11:51:43;;;;;;;1.93;1.60;;;19.90;63.30;;;;;;5085433;28;20550;-90
2022/04/30 11:54:14;;;;;;;1.77;1.67;;;19.60;63.40;;;;;;5089450;28;20470;-91
2022/04/30 11:56:43;;;;;;;1.43;1.27;;;19.60;60.80;;;;;;5083279;28;20486;-91
2022/04/30 11:59:11;;;;;;;1.47;1.20;;;19.90;65.20;;;;;;5082564;28;20523;-91
2022/04/30 12:01:40;;;;;;;1.87;1.37;;;19.30;62.60;;;;;;5083488;28;20472;-91
2022/04/30 12:04:11;;;;;;;1.97;1.47;;;19.50;63.70;;;;;;5094906;28;20832;-92
2022/04/30 12:06:39;;;;;;;3.23;1.20;;;19.80;59.60;;;;;;5088719;28;20929;-91
2022/04/30 12:09:16;;;;;;;1.60;1.50;;;20.10;64.20;;;;;;5089871;28;20476;-94
2022/04/30 12:11:44;;;;;;;1.77;1.67;;;20.70;66.30;;;;;;5087784;28;20514;-91
2022/04/30 12:14:11;;;;;;;2.33;1.30;;;21.30;61.80;;;;;;5089819;28;20905;-91
2022/04/30 12:16:40;;;;;;;1.77;1.63;;;21.60;59.50;;;;;;5091132;28;20488;-92
2022/04/30 12:24:49;;;;;;;1.47;1.37;;;21.50;60.00;;;;;;5086306;28;20457;-91
2022/04/30 12:27:21;;;;;;;1.43;1.33;;;21.50;59.20;;;;;;5088608;28;22396;-92
2022/04/30 12:30:00;;;;;;;2.80;1.10;;;21.50;57.60;;;;;;5091235;28;20481;-92
2022/04/30 12:32:27;;;;;;;0.70;0.70;;;20.80;53.40;;;;;;5085475;28;20455;-92
2022/04/30 12:34:56;;;;;;;2.00;0.90;;;20.50;58.40;;;;;;5084532;28;20459;-92
2022/04/30 12:37:34;;;;;;;2.20;1.37;;;20.40;57.50;;;;;;5090083;28;20964;-92
2022/04/30 12:40:03;;;;;;;2.43;0.90;;;20.30;57.60;;;;;;5093705;28;20468;-92
2022/04/30 12:42:30;;;;;;;0.90;0.90;;;19.90;58.70;;;;;;5088974;28;20535;-92
2022/04/30 12:44:57;;;;;;;1.00;0.80;;;19.60;56.50;;;;;;5087515;28;20470;-92
2022/04/30 12:47:24;;;;;;;1.03;0.93;;;19.90;57.70;;;;;;5088903;28;20458;-93
2022/04/30 12:49:51;;;;;;;0.63;0.53;;;20.00;57.60;;;;;;5087847;28;20488;-92
2022/04/30 12:52:18;;;;;;;1.13;1.00;;;20.00;55.10;;;;;;5083968;28;20474;-92
2022/04/30 12:54:45;;;;;;;1.20;1.10;;;20.00;56.70;;;;;;5087532;28;20463;-92
2022/04/30 12:57:13;;;;;;;1.90;1.30;;;19.40;57.40;;;;;;5097088;27;20541;-92
2022/04/30 12:59:42;;;;;;;2.23;1.37;;;19.50;58.90;;;;;;5093755;28;20468;-91
2022/04/30 13:02:09;;;;;;;1.53;0.80;;;19.60;57.70;;;;;;5087457;28;20464;-91
2022/04/30 13:04:37;;;;;;;1.77;1.33;;;19.10;56.00;;;;;;5087574;28;20519;-92
2022/04/30 13:07:05;;;;;;;0.80;0.70;;;19.10;56.70;;;;;;5090967;28;20468;-92
2022/04/30 13:15:02;;;;;;;1.33;1.10;;;20.10;56.30;;;;;;5090307;28;20811;-92
2022/04/30 13:17:29;;;;;;;2.07;1.03;;;20.50;56.80;;;;;;5085725;28;20490;-92
2022/04/30 13:19:56;;;;;;;0.83;0.70;;;20.60;55.90;;;;;;5084312;28;20488;-92
2022/04/30 13:22:23;;;;;;;0.60;0.60;;;20.90;56.10;;;;;;5086998;28;20461;-92
2022/04/30 13:24:51;;;;;;;0.60;0.60;;;21.30;57.10;;;;;;5088273;28;20546;-91
2022/04/30 13:27:19;;;;;;;1.23;1.03;;;21.20;52.80;;;;;;5094251;28;20484;-91
2022/04/30 13:29:46;;;;;;;0.50;0.50;;;21.10;53.00;;;;;;5088144;28;20466;-91
2022/04/30 13:32:13;;;;;;;1.63;0.70;;;21.00;53.40;;;;;;5087473;28;20616;-91
2022/04/30 13:34:40;;;;;;;2.00;1.37;;;21.30;55.50;;;;;;5085625;28;20475;-91
2022/04/30 13:37:07;;;;;;;1.70;1.17;;;21.20;56.10;;;;;;5097694;28;20486;-92
2022/04/30 13:39:34;;;;;;;1.60;1.50;;;21.00;52.20;;;;;;5088872;28;20466;-92
2022/04/30 13:42:01;;;;;;;0.73;0.70;;;21.30;53.10;;;;;;5088817;28;20481;-92
2022/04/30 13:44:29;;;;;;;0.60;0.60;;;21.00;49.00;;;;;;5110253;28;20491;-92